createdAt,value
2022-10-23T00:01:59.497Z,8.43
2022-10-23T00:04:29.427Z,8.37
2022-10-23T00:06:57.895Z,8.39
2022-10-23T00:09:26.475Z,8.33
2022-10-23T00:11:54.915Z,8.35
2022-10-23T00:14:25.435Z,8.36
2022-10-23T00:16:53.825Z,8.35
2022-10-23T00:19:22.195Z,8.34
2022-10-23T00:21:52.115Z,8.38
2022-10-23T00:24:20.561Z,8.38
2022-10-23T00:26:50.998Z,8.44
2022-10-23T00:29:19.189Z,8.40
2022-10-23T00:31:47.368Z,8.48
2022-10-23T00:34:15.608Z,8.50
2022-10-23T00:36:46.752Z,8.53
2022-10-23T00:39:16.339Z,8.54
2022-10-23T00:41:44.541Z,8.59
2022-10-23T00:44:51.367Z,8.51
2022-10-23T00:47:20.011Z,8.56
2022-10-23T00:49:48.202Z,8.55
2022-10-23T00:52:16.858Z,8.50
2022-10-23T00:54:46.769Z,8.57
2022-10-23T00:57:16.538Z,8.54
2022-10-23T00:59:44.862Z,8.57
2022-10-23T01:02:13.359Z,8.59
2022-10-23T01:04:41.779Z,8.61
2022-10-23T01:07:15.097Z,8.71
2022-10-23T01:09:51.302Z,8.65
2022-10-23T01:12:25.492Z,8.63
2022-10-23T01:15:04.147Z,8.69
2022-10-23T01:17:40.885Z,8.70
2022-10-23T01:20:21.848Z,8.75
2022-10-23T01:23:13.169Z,8.76
2022-10-23T01:25:58.962Z,8.74
2022-10-23T01:28:32.051Z,8.78
2022-10-23T01:31:02.585Z,8.72
2022-10-23T01:33:35.040Z,8.71
2022-10-23T01:36:05.508Z,8.71
2022-10-23T01:38:39.188Z,8.71
2022-10-23T01:41:12.199Z,8.65
2022-10-23T01:43:45.841Z,8.67
2022-10-23T01:46:16.781Z,8.58
2022-10-23T01:48:48.168Z,8.54
2022-10-23T01:51:17.172Z,8.52
2022-10-23T01:53:46.729Z,8.51
2022-10-23T01:56:23.638Z,8.44
2022-10-23T01:58:55.228Z,8.47
2022-10-23T02:01:26.089Z,8.36
2022-10-23T02:03:55.529Z,8.38
2022-10-23T02:06:23.778Z,8.44
2022-10-23T02:08:52.319Z,8.43
2022-10-23T02:11:22.608Z,8.46
2022-10-23T02:13:57.376Z,8.42
2022-10-23T02:16:30.787Z,8.41
2022-10-23T02:19:08.192Z,8.45
2022-10-23T02:21:42.869Z,8.40
2022-10-23T02:24:13.542Z,8.39
2022-10-23T02:26:44.052Z,8.38
2022-10-23T02:29:17.093Z,8.37
2022-10-23T02:31:45.361Z,8.43
2022-10-23T02:34:13.692Z,8.43
2022-10-23T02:36:42.559Z,8.36
2022-10-23T02:39:10.998Z,8.45
2022-10-23T02:41:43.119Z,8.52
2022-10-23T02:44:30.525Z,8.49
2022-10-23T02:47:10.823Z,8.45
2022-10-23T02:49:43.499Z,8.27
2022-10-23T02:52:16.552Z,8.34
2022-10-23T02:55:02.122Z,8.32
2022-10-23T02:57:34.249Z,8.29
2022-10-23T03:00:07.932Z,8.43
2022-10-23T03:02:39.777Z,8.43
2022-10-23T03:05:10.908Z,8.40
2022-10-23T03:07:40.914Z,8.29
2022-10-23T03:10:10.812Z,8.29
2022-10-23T03:12:39.337Z,8.25
2022-10-23T03:15:10.662Z,8.06
2022-10-23T03:17:38.869Z,8.09
2022-10-23T03:20:07.969Z,7.97
2022-10-23T03:22:36.297Z,7.92
2022-10-23T03:25:05.157Z,7.88
2022-10-23T03:27:33.534Z,7.86
2022-10-23T03:30:01.773Z,7.88
2022-10-23T03:32:31.819Z,7.87
2022-10-23T03:35:00.077Z,7.94
2022-10-23T03:37:28.338Z,7.95
2022-10-23T03:39:56.682Z,8.02
2022-10-23T03:42:24.947Z,8.06
2022-10-23T03:44:53.110Z,8.10
2022-10-23T03:47:21.342Z,8.15
2022-10-23T03:49:51.080Z,8.18
2022-10-23T03:52:19.582Z,8.09
2022-10-23T03:54:47.853Z,8.18
2022-10-23T03:57:16.049Z,8.21
2022-10-23T03:59:44.569Z,8.26
2022-10-23T04:02:12.824Z,8.17
2022-10-23T04:04:41.069Z,8.20
2022-10-23T04:07:10.832Z,8.28
2022-10-23T04:09:39.033Z,8.25
2022-10-23T04:12:08.029Z,8.26
2022-10-23T04:14:36.554Z,8.22
2022-10-23T04:17:04.801Z,8.24
2022-10-23T04:19:33.050Z,8.25
2022-10-23T04:22:01.308Z,8.31
2022-10-23T04:24:30.926Z,8.28
2022-10-23T04:26:59.226Z,8.23
2022-10-23T04:29:29.637Z,8.21
2022-10-23T04:31:57.808Z,8.16
2022-10-23T04:34:26.134Z,8.30
2022-10-23T04:36:54.378Z,8.28
2022-10-23T04:39:22.659Z,8.30
2022-10-23T04:41:52.299Z,8.25
2022-10-23T04:44:20.488Z,8.30
2022-10-23T04:46:48.658Z,8.25
2022-10-23T04:49:16.838Z,8.26
2022-10-23T04:51:45.117Z,8.33
2022-10-23T04:54:13.311Z,8.32
2022-10-23T04:56:41.828Z,8.34
2022-10-23T04:59:11.589Z,8.28
2022-10-23T05:01:39.905Z,8.28
2022-10-23T05:04:08.224Z,8.30
2022-10-23T05:06:36.379Z,8.24
2022-10-23T05:09:04.741Z,8.26
2022-10-23T05:11:32.922Z,8.35
2022-10-23T05:14:01.167Z,8.40
2022-10-23T05:16:37.162Z,8.43
2022-10-23T05:19:06.299Z,8.42
2022-10-23T05:21:36.419Z,8.47
2022-10-23T05:24:04.901Z,8.48
2022-10-23T05:26:33.865Z,8.45
2022-10-23T05:29:02.072Z,8.47
2022-10-23T05:31:32.423Z,8.39
2022-10-23T05:34:01.847Z,8.50
2022-10-23T05:36:30.749Z,8.53
2022-10-23T05:38:59.507Z,8.52
2022-10-23T05:41:27.810Z,8.54
2022-10-23T05:43:56.031Z,8.56
2022-10-23T05:46:24.397Z,8.51
2022-10-23T05:48:54.276Z,8.53
2022-10-23T05:51:23.603Z,8.58
2022-10-23T05:53:52.926Z,8.53
2022-10-23T05:56:21.034Z,8.53
2022-10-23T05:58:49.982Z,8.57
2022-10-23T06:01:18.633Z,8.57
2022-10-23T06:03:46.935Z,8.60
2022-10-23T06:06:16.523Z,8.63
2022-10-23T06:08:44.659Z,8.67
2022-10-23T06:11:14.500Z,8.70
2022-10-23T06:13:44.731Z,8.75
2022-10-23T06:16:13.839Z,8.75
2022-10-23T06:18:42.178Z,8.87
2022-10-23T06:21:10.659Z,8.87
2022-10-23T06:23:41.198Z,8.87
2022-10-23T06:26:12.624Z,8.95
2022-10-23T06:28:41.171Z,9.01
2022-10-23T06:31:11.090Z,9.09
2022-10-23T06:33:39.219Z,9.14
2022-10-23T06:36:10.448Z,9.19
2022-10-23T06:38:40.826Z,9.22
2022-10-23T06:41:12.371Z,9.30
2022-10-23T06:43:40.512Z,9.35
2022-10-23T06:46:08.779Z,9.45
2022-10-23T06:48:36.942Z,9.35
2022-10-23T06:51:07.842Z,9.40
2022-10-23T06:53:36.479Z,9.45
2022-10-23T06:56:07.842Z,9.49
2022-10-23T06:58:36.499Z,9.61
2022-10-23T07:01:06.503Z,9.70
2022-10-23T07:03:35.491Z,9.69
2022-10-23T07:06:04.075Z,9.68
2022-10-23T07:08:32.639Z,9.69
2022-10-23T07:11:06.431Z,9.93
2022-10-23T07:13:35.359Z,10.01
2022-10-23T07:16:11.513Z,10.18
2022-10-23T07:18:39.583Z,10.06
2022-10-23T07:21:07.768Z,10.18
2022-10-23T07:23:36.127Z,10.35
2022-10-23T07:26:07.499Z,10.54
2022-10-23T07:28:36.040Z,10.60
2022-10-23T07:31:04.712Z,10.60
2022-10-23T07:33:32.778Z,10.37
2022-10-23T07:36:00.909Z,10.40
2022-10-23T07:38:29.077Z,10.46
2022-10-23T07:40:59.399Z,10.50
2022-10-23T07:43:29.000Z,10.57
2022-10-23T07:45:57.066Z,10.83
2022-10-23T07:48:27.338Z,11.10
2022-10-23T07:51:01.423Z,11.14
2022-10-23T07:53:30.283Z,11.09
2022-10-23T07:55:59.978Z,11.04
2022-10-23T07:58:30.999Z,11.13
2022-10-23T08:01:00.397Z,11.34
2022-10-23T08:03:29.360Z,11.61
2022-10-23T08:05:58.997Z,11.59
2022-10-23T08:08:28.144Z,11.63
2022-10-23T08:10:57.554Z,11.50
2022-10-23T08:13:25.707Z,11.53
2022-10-23T08:15:56.098Z,11.55
2022-10-23T08:18:24.197Z,11.50
2022-10-23T08:20:53.052Z,11.51
2022-10-23T08:23:21.602Z,11.68
2022-10-23T08:25:49.698Z,12.01
2022-10-23T08:28:17.812Z,12.42
2022-10-23T08:30:45.929Z,12.58
2022-10-23T08:33:15.441Z,13.10
2022-10-23T08:35:43.519Z,14.28
2022-10-23T08:38:11.939Z,15.50
2022-10-23T08:40:40.072Z,16.04
2022-10-23T08:43:16.159Z,17.13
2022-10-23T08:45:46.679Z,16.67
2022-10-23T08:48:21.719Z,16.21
2022-10-23T08:50:53.719Z,15.31
2022-10-23T08:53:24.069Z,14.66
2022-10-23T08:55:56.939Z,14.50
2022-10-23T08:58:29.578Z,14.41
2022-10-23T09:00:58.216Z,14.16
2022-10-23T09:03:28.339Z,14.36
2022-10-23T09:06:09.560Z,14.16
2022-10-23T09:08:46.749Z,14.05
2022-10-23T09:11:20.020Z,13.78
2022-10-23T09:14:27.822Z,13.80
2022-10-23T09:17:04.152Z,13.76
2022-10-23T09:19:33.719Z,13.41
2022-10-23T09:22:02.061Z,13.70
2022-10-23T09:24:31.881Z,13.84
2022-10-23T09:27:01.022Z,14.23
2022-10-23T09:29:32.003Z,14.32
2022-10-23T09:32:01.710Z,14.46
2022-10-23T09:34:30.659Z,14.63
2022-10-23T09:37:01.155Z,14.99
2022-10-23T09:39:31.599Z,14.95
2022-10-23T09:42:02.534Z,14.40
2022-10-23T09:44:32.840Z,14.01
2022-10-23T09:47:02.098Z,14.02
2022-10-23T09:49:31.414Z,13.79
2022-10-23T09:52:06.379Z,13.44
2022-10-23T09:54:36.820Z,13.67
2022-10-23T09:57:08.146Z,13.31
2022-10-23T09:59:36.909Z,13.32
2022-10-23T10:02:05.310Z,13.28
2022-10-23T10:04:37.692Z,13.26
2022-10-23T10:07:19.530Z,13.80
2022-10-23T10:09:47.898Z,13.52
2022-10-23T10:12:38.858Z,13.64
2022-10-23T10:15:15.802Z,13.79
2022-10-23T10:17:49.318Z,13.65
2022-10-23T10:20:39.029Z,13.95
2022-10-23T10:23:15.724Z,14.09
2022-10-23T10:25:51.363Z,13.99
2022-10-23T10:28:33.373Z,13.85
2022-10-23T10:31:10.170Z,13.43
2022-10-23T10:33:41.998Z,13.34
2022-10-23T10:36:16.377Z,13.54
2022-10-23T10:38:49.252Z,13.72
2022-10-23T10:41:24.749Z,13.98
2022-10-23T10:44:02.129Z,13.87
2022-10-23T10:46:34.170Z,13.80
2022-10-23T10:49:04.619Z,13.93
2022-10-23T10:51:40.358Z,14.18
2022-10-23T10:54:20.574Z,14.39
2022-10-23T10:56:49.492Z,14.35
2022-10-23T10:59:22.158Z,14.06
2022-10-23T11:01:54.881Z,14.27
2022-10-23T11:04:30.649Z,14.30
2022-10-23T11:06:59.039Z,14.37
2022-10-23T11:09:29.498Z,14.45
2022-10-23T11:11:57.788Z,14.64
2022-10-23T11:14:27.661Z,14.81
2022-10-23T11:16:59.259Z,14.71
2022-10-23T11:19:30.449Z,14.74
2022-10-23T11:22:01.118Z,14.57
2022-10-23T11:24:55.821Z,14.59
2022-10-23T11:28:04.485Z,14.94
2022-10-23T11:30:37.568Z,14.98
2022-10-23T11:33:44.774Z,14.76
2022-10-23T11:36:15.724Z,14.80
2022-10-23T11:38:45.409Z,14.90
2022-10-23T11:41:25.539Z,15.05
2022-10-23T11:43:57.225Z,15.28
2022-10-23T11:46:32.892Z,14.92
2022-10-23T11:49:03.277Z,14.93
2022-10-23T11:51:33.520Z,15.24
2022-10-23T11:54:27.424Z,15.43
2022-10-23T11:57:10.110Z,14.97
2022-10-23T11:59:51.670Z,15.39
2022-10-23T12:02:27.792Z,15.45
2022-10-23T12:04:56.612Z,15.31
2022-10-23T12:07:27.108Z,15.32
2022-10-23T12:09:58.189Z,15.47
2022-10-23T12:12:34.159Z,15.47
2022-10-23T12:15:24.099Z,15.48
2022-10-23T12:17:54.268Z,15.58
2022-10-23T12:20:38.050Z,15.84
2022-10-23T12:23:38.432Z,15.99
2022-10-23T12:26:22.280Z,16.07
2022-10-23T12:28:58.828Z,16.38
2022-10-23T12:31:37.593Z,16.28
2022-10-23T12:34:12.269Z,16.69
2022-10-23T12:36:56.789Z,16.68
2022-10-23T12:39:29.689Z,16.53
2022-10-23T12:41:58.098Z,16.81
2022-10-23T12:44:28.138Z,17.48
2022-10-23T12:46:58.829Z,18.65
2022-10-23T12:49:28.679Z,19.43
2022-10-23T12:51:57.819Z,20.74
2022-10-23T12:54:26.399Z,20.53
2022-10-23T12:56:54.847Z,20.60
2022-10-23T12:59:26.477Z,19.65
2022-10-23T13:01:56.786Z,19.45
2022-10-23T13:04:31.060Z,18.89
2022-10-23T13:07:00.569Z,18.73
2022-10-23T13:09:31.238Z,19.45
2022-10-23T13:12:00.786Z,19.12
2022-10-23T13:14:35.140Z,19.73
2022-10-23T13:17:07.387Z,20.74
2022-10-23T13:19:36.579Z,20.02
2022-10-23T13:22:06.359Z,20.13
2022-10-23T13:24:34.559Z,19.98
2022-10-23T13:27:03.274Z,19.38
2022-10-23T13:29:32.616Z,19.68
2022-10-23T13:32:12.924Z,19.87
2022-10-23T13:34:40.989Z,18.91
2022-10-23T13:37:25.299Z,18.19
2022-10-23T13:40:03.353Z,18.08
2022-10-23T13:42:31.480Z,18.55
2022-10-23T13:45:00.380Z,18.60
2022-10-23T13:47:30.019Z,18.51
2022-10-23T13:49:58.099Z,18.25
2022-10-23T13:52:26.160Z,17.54
2022-10-23T13:54:54.307Z,17.70
2022-10-23T13:57:22.389Z,17.58
2022-10-23T13:59:51.077Z,17.50
2022-10-23T14:02:21.299Z,16.93
2022-10-23T14:04:51.759Z,16.97
2022-10-23T14:07:19.900Z,16.75
2022-10-23T14:09:50.454Z,16.87
2022-10-23T14:12:18.945Z,16.93
2022-10-23T14:14:47.732Z,16.62
2022-10-23T14:17:15.919Z,16.53
2022-10-23T14:19:44.246Z,16.60
2022-10-23T14:22:13.802Z,16.43
2022-10-23T14:24:41.970Z,16.36
2022-10-23T14:27:10.039Z,16.46
2022-10-23T14:29:38.119Z,16.51
2022-10-23T14:32:06.751Z,16.52
2022-10-23T14:34:35.079Z,16.43
2022-10-23T14:37:08.594Z,16.30
2022-10-23T14:39:38.769Z,16.06
2022-10-23T14:42:06.949Z,16.05
2022-10-23T14:44:35.016Z,16.14
2022-10-23T14:47:03.299Z,16.12
2022-10-23T14:49:31.438Z,16.10
2022-10-23T14:51:59.622Z,16.18
2022-10-23T14:54:29.478Z,16.13
2022-10-23T14:56:58.959Z,15.93
2022-10-23T14:59:27.041Z,15.84
2022-10-23T15:01:55.173Z,15.71
2022-10-23T15:04:24.001Z,15.55
2022-10-23T15:06:52.341Z,15.48
2022-10-23T15:09:20.727Z,15.25
2022-10-23T15:11:49.071Z,15.17
2022-10-23T15:14:19.762Z,15.17
2022-10-23T15:16:48.560Z,15.09
2022-10-23T15:19:18.755Z,15.02
2022-10-23T15:21:47.919Z,14.96
2022-10-23T15:24:16.452Z,14.92
2022-10-23T15:26:44.650Z,14.83
2022-10-23T15:29:14.906Z,14.72
2022-10-23T15:31:50.530Z,14.66
2022-10-23T15:34:20.305Z,14.54
2022-10-23T15:36:48.900Z,14.49
2022-10-23T15:39:21.496Z,14.43
2022-10-23T15:41:52.272Z,14.36
2022-10-23T15:44:22.260Z,14.26
2022-10-23T15:46:52.558Z,14.25
2022-10-23T15:49:21.172Z,14.15
2022-10-23T15:51:49.339Z,13.99
2022-10-23T15:54:19.459Z,13.76
2022-10-23T15:56:48.639Z,13.55
2022-10-23T15:59:17.208Z,13.36
2022-10-23T16:01:45.415Z,13.14
2022-10-23T16:04:16.168Z,12.95
2022-10-23T16:06:44.845Z,12.74
2022-10-23T16:09:13.222Z,12.63
2022-10-23T16:11:42.892Z,12.48
2022-10-23T16:14:13.739Z,12.29
2022-10-23T16:16:41.979Z,12.20
2022-10-23T16:19:12.029Z,12.08
2022-10-23T16:21:41.852Z,11.99
2022-10-23T16:24:10.369Z,11.90
2022-10-23T16:26:39.354Z,11.82
2022-10-23T16:29:08.858Z,11.75
2022-10-23T16:31:37.689Z,11.69
2022-10-23T16:34:06.883Z,11.64
2022-10-23T16:36:35.367Z,11.67
2022-10-23T16:39:05.400Z,11.68
2022-10-23T16:41:33.780Z,11.71
2022-10-23T16:44:02.155Z,11.71
2022-10-23T16:46:30.881Z,11.72
2022-10-23T16:48:59.379Z,11.82
2022-10-23T16:51:28.279Z,11.77
2022-10-23T16:53:56.898Z,11.77
2022-10-23T16:56:29.429Z,11.83
2022-10-23T17:01:33.289Z,11.78
2022-10-23T17:04:01.716Z,11.75
2022-10-23T17:06:31.394Z,11.75
2022-10-23T17:09:00.122Z,11.76
2022-10-23T17:11:30.771Z,11.72
2022-10-23T17:14:00.343Z,11.71
2022-10-23T17:16:29.879Z,11.68
2022-10-23T17:18:58.208Z,11.67
2022-10-23T17:21:26.398Z,11.68
2022-10-23T17:23:54.597Z,11.66
2022-10-23T17:26:23.655Z,11.62
2022-10-23T17:28:53.361Z,11.57
2022-10-23T17:31:23.499Z,11.52
2022-10-23T17:33:53.510Z,11.55
2022-10-23T17:36:22.816Z,11.49
2022-10-23T17:38:51.118Z,11.43
2022-10-23T17:41:20.590Z,11.36
2022-10-23T17:43:48.859Z,11.32
2022-10-23T17:46:19.371Z,11.26
2022-10-23T17:48:47.744Z,11.22
2022-10-23T17:51:18.767Z,11.18
2022-10-23T17:53:49.271Z,11.09
2022-10-23T17:56:20.179Z,11.02
2022-10-23T17:58:49.509Z,11.04
2022-10-23T18:01:21.196Z,11.12
2022-10-23T18:03:49.459Z,11.11
2022-10-23T18:06:19.268Z,11.15
2022-10-23T18:08:48.101Z,11.17
2022-10-23T18:11:17.047Z,11.13
2022-10-23T18:13:45.532Z,11.08
2022-10-23T18:16:15.328Z,11.09
2022-10-23T18:18:48.193Z,11.04
2022-10-23T18:21:17.654Z,11.07
2022-10-23T18:23:46.522Z,11.10
2022-10-23T18:26:17.160Z,11.11
2022-10-23T18:28:45.798Z,11.09
2022-10-23T18:31:15.179Z,11.11
2022-10-23T18:33:45.429Z,11.11
2022-10-23T18:36:15.119Z,11.20
2022-10-23T18:38:43.903Z,11.27
2022-10-23T18:41:12.159Z,11.33
2022-10-23T18:43:44.535Z,11.32
2022-10-23T18:46:13.269Z,11.39
2022-10-23T18:48:41.669Z,11.40
2022-10-23T18:51:16.277Z,11.58
2022-10-23T18:53:47.545Z,11.55
2022-10-23T18:56:16.429Z,11.50
2022-10-23T18:58:44.578Z,11.50
2022-10-23T19:01:12.752Z,11.42
2022-10-23T19:03:41.123Z,11.38
2022-10-23T19:06:09.468Z,11.32
2022-10-23T19:08:39.486Z,11.29
2022-10-23T19:11:08.913Z,11.37
2022-10-23T19:13:39.246Z,11.38
2022-10-23T19:16:10.405Z,11.31
2022-10-23T19:18:39.819Z,11.31
2022-10-23T19:21:08.311Z,11.20
2022-10-23T19:23:39.479Z,11.13
2022-10-23T19:26:09.125Z,11.22
2022-10-23T19:28:40.150Z,11.28
2022-10-23T19:31:10.031Z,11.47
2022-10-23T19:33:39.040Z,11.57
2022-10-23T19:36:12.651Z,11.69
2022-10-23T19:38:43.729Z,11.69
2022-10-23T19:41:11.991Z,11.77
2022-10-23T19:43:40.239Z,11.71
2022-10-23T19:46:11.266Z,11.72
2022-10-23T19:48:44.562Z,11.77
2022-10-23T19:51:13.659Z,11.86
2022-10-23T19:53:43.758Z,12.21
2022-10-23T19:56:13.328Z,12.24
2022-10-23T19:58:41.869Z,12.39
2022-10-23T20:01:12.024Z,12.51
2022-10-23T20:03:40.696Z,12.55
2022-10-23T20:06:12.424Z,12.74
2022-10-23T20:08:40.711Z,12.92
2022-10-23T20:11:12.865Z,12.98
2022-10-23T20:13:41.649Z,13.07
2022-10-23T20:16:09.719Z,13.14
2022-10-23T20:18:37.888Z,13.17
2022-10-23T20:21:06.049Z,13.19
2022-10-23T20:23:34.188Z,13.18
2022-10-23T20:26:06.778Z,13.24
2022-10-23T20:28:36.429Z,13.32
2022-10-23T20:31:08.509Z,13.34
2022-10-23T20:33:36.787Z,13.49
2022-10-23T20:36:05.483Z,13.61
2022-10-23T20:38:33.589Z,13.55
2022-10-23T20:41:05.755Z,13.56
2022-10-23T20:43:35.761Z,13.54
2022-10-23T20:46:07.939Z,13.44
2022-10-23T20:48:36.620Z,13.39
2022-10-23T20:51:05.378Z,13.40
2022-10-23T20:53:33.909Z,13.35
2022-10-23T20:56:01.979Z,13.26
2022-10-23T20:58:30.149Z,13.28
2022-10-23T21:01:03.971Z,13.25
2022-10-23T21:03:32.259Z,13.28
2022-10-23T21:06:05.008Z,13.27
2022-10-23T21:08:33.196Z,13.22
2022-10-23T21:11:01.448Z,13.13
2022-10-23T21:13:30.170Z,13.07
2022-10-23T21:15:59.829Z,13.13
2022-10-23T21:18:45.030Z,13.09
2022-10-23T21:21:14.991Z,13.16
2022-10-23T21:23:43.081Z,13.07
2022-10-23T21:26:11.189Z,12.99
2022-10-23T21:28:41.747Z,12.92
2022-10-23T21:31:20.971Z,12.89
2022-10-23T21:33:50.317Z,12.88
2022-10-23T21:36:19.998Z,12.89
2022-10-23T21:38:49.439Z,12.92
2022-10-23T21:41:20.937Z,12.83
2022-10-23T21:43:49.037Z,12.80
2022-10-23T21:46:20.359Z,12.76
2022-10-23T21:48:48.949Z,12.72
2022-10-23T21:51:22.779Z,12.67
2022-10-23T21:53:51.459Z,12.73
2022-10-23T21:56:28.879Z,12.72
2022-10-23T21:58:57.294Z,12.70
2022-10-23T22:01:27.236Z,12.70
2022-10-23T22:03:55.993Z,12.70
2022-10-23T22:06:27.247Z,12.69
2022-10-23T22:08:57.241Z,12.59
2022-10-23T22:11:25.379Z,12.63
2022-10-23T22:13:53.519Z,12.63
2022-10-23T22:16:21.660Z,12.63
2022-10-23T22:18:51.279Z,12.59
2022-10-23T22:21:21.643Z,12.53
2022-10-23T22:23:50.178Z,12.54
2022-10-23T22:26:22.077Z,12.53
2022-10-23T22:28:51.159Z,12.53
2022-10-23T22:31:20.639Z,12.55
2022-10-23T22:33:50.543Z,12.53
2022-10-23T22:36:18.999Z,12.55
2022-10-23T22:38:47.182Z,12.55
2022-10-23T22:41:16.200Z,12.52
2022-10-23T22:43:44.299Z,12.48
2022-10-23T22:46:13.690Z,12.53
2022-10-23T22:48:41.970Z,12.58
2022-10-23T22:51:13.039Z,12.53
2022-10-23T22:53:41.399Z,12.48
2022-10-23T22:56:11.119Z,12.49
2022-10-23T22:58:39.320Z,12.48
2022-10-23T23:01:11.332Z,12.48
2022-10-23T23:03:39.708Z,12.41
2022-10-23T23:06:08.938Z,12.40
2022-10-23T23:08:39.840Z,12.40
2022-10-23T23:11:09.499Z,12.38
2022-10-23T23:13:38.044Z,12.37
2022-10-23T23:16:07.119Z,12.33
2022-10-23T23:18:35.980Z,12.39
2022-10-23T23:21:04.667Z,12.32
2022-10-23T23:23:33.229Z,12.34
2022-10-23T23:26:06.092Z,12.32
2022-10-23T23:28:34.379Z,12.34
2022-10-23T23:31:07.039Z,12.38
2022-10-23T23:33:35.563Z,12.24
2022-10-23T23:36:08.209Z,12.24
2022-10-23T23:38:36.657Z,12.27
2022-10-23T23:41:07.619Z,12.24
2022-10-23T23:43:35.720Z,12.19
2022-10-23T23:46:03.840Z,12.15
2022-10-23T23:48:31.942Z,12.11
2022-10-23T23:51:00.231Z,12.07
2022-10-23T23:53:28.486Z,12.02
2022-10-23T23:55:56.771Z,11.99
2022-10-23T23:58:26.308Z,11.97
